Time;durP1;ratioP1;P1;durP2;ratioP2;P2;SDS_P1;SDS_P2;PMS_P1;PMS_P2;Temp;Humidity;BMP_temperature;BMP_pressure;BME280_temperature;BME280_humidity;BME280_pressure;Samples;Min_cycle;Max_cycle;Signal;HPM_P1;HPM_P2
2021/12/16 00:06:45;;;;;;;;;;;;;;;5.62;71.33;101210.37;4359803;32;34390;-56
2021/12/16 00:09:01;;;;;;;;;;;;;;;5.65;71.40;101212.06;4358105;32;33237;-56
2021/12/16 00:31:45;;;;;;;;;;;;;;;5.83;70.36;101210.84;4357972;32;34177;-53
2021/12/16 00:33:37;;;;;;;;;;;;;;;5.91;69.92;101214.19;4352136;32;33918;-54
2021/12/16 00:36:05;;;;;;;;;;;;;;;5.66;70.34;101213.78;4358857;32;35104;-54
2021/12/16 00:38:35;;;;;;;;;;;;;;;5.73;69.70;101220.66;4357655;32;34657;-54
2021/12/16 00:41:02;;;;;;;;;;;;;;;5.79;69.31;101223.16;4359140;32;33795;-54
2021/12/16 00:46:12;;;;;;;;;;;;;;;5.79;68.76;101225.75;4359668;32;34880;-53
2021/12/16 00:54:12;;;;;;;;;;;;;;;5.82;67.86;101222.25;4359469;32;33908;-53
2021/12/16 00:56:44;;;;;;;;;;;;;;;5.80;68.09;101221.41;4358173;32;34464;-53
2021/12/16 00:59:15;;;;;;;;;;;;;;;5.63;68.08;101225.19;4359160;32;34919;-53
2021/12/16 01:02:01;;;;;;;;;;;;;;;5.62;67.91;101217.34;4359573;32;33364;-53
2021/12/16 01:40:13;;;;;;;;;;;;;;;5.46;66.59;101201.91;4345740;33;36241;-53
2021/12/16 01:51:16;;;;;;;;;;;;;;;5.46;69.60;101201.06;4360953;32;34735;-53
2021/12/16 01:59:03;;;;;;;;;;;;;;;5.44;71.59;101189.72;4361356;32;33954;-54
2021/12/16 02:01:33;;;;;;;;;;;;;;;5.23;71.95;101189.22;4360529;32;34567;-53
2021/12/16 02:04:09;;;;;;;;;;;;;;;5.43;71.00;101188.88;4359949;32;34965;-53
2021/12/16 02:31:29;;;;;;;;;;;;;;;5.61;71.84;101166.72;4359389;32;33805;-53
2021/12/16 02:36:44;;;;;;;;;;;;;;;5.42;73.80;101174.03;4361118;32;35132;-53
2021/12/16 02:39:12;;;;;;;;;;;;;;;5.42;74.07;101167.94;4359627;32;33120;-53
2021/12/16 02:41:41;;;;;;;;;;;;;;;5.42;73.77;101175.81;4361044;32;34142;-53
2021/12/16 02:49:30;;;;;;;;;;;;;;;5.53;73.29;101166.84;4360903;32;32731;-53
2021/12/16 02:51:57;;;;;;;;;;;;;;;5.29;74.60;101165.56;4359786;32;33962;-53
2021/12/16 02:54:26;;;;;;;;;;;;;;;5.16;75.46;101155.28;4360825;32;35461;-53
2021/12/16 02:56:53;;;;;;;;;;;;;;;5.25;75.06;101157.75;4358621;32;34950;-53
2021/12/16 02:59:26;;;;;;;;;;;;;;;5.37;74.63;101162.81;4360686;32;33595;-53
2021/12/16 03:01:55;;;;;;;;;;;;;;;5.38;74.54;101158.41;4360273;32;35222;-53
2021/12/16 03:04:25;;;;;;;;;;;;;;;5.52;74.33;101161.63;4360328;32;34491;-54
2021/12/16 03:06:53;;;;;;;;;;;;;;;5.50;74.07;101158.19;4360688;32;34283;-53
2021/12/16 03:09:38;;;;;;;;;;;;;;;5.36;74.81;101149.72;4359704;32;33155;-53
2021/12/16 03:14:58;;;;;;;;;;;;;;;5.53;74.19;101132.78;4359964;32;34047;-53
2021/12/16 03:18:09;;;;;;;;;;;;;;;5.42;74.14;101139.13;4359760;32;34182;-53
2021/12/16 03:20:34;;;;;;;;;;;;;;;5.71;73.46;101146.41;4359725;32;33551;-54
2021/12/16 03:33:51;;;;;;;;;;;;;;;5.95;72.66;101137.22;4360464;32;34323;-54
2021/12/16 03:39:03;;;;;;;;;;;;;;;5.75;73.40;101145.47;4359788;32;34509;-54
2021/12/16 03:41:30;;;;;;;;;;;;;;;5.70;73.18;101147.34;4360474;32;34509;-54
2021/12/16 03:43:59;;;;;;;;;;;;;;;5.77;72.99;101148.91;4358966;32;32760;-53
2021/12/16 03:46:29;;;;;;;;;;;;;;;5.79;72.80;101143.66;4360327;32;34096;-53
2021/12/16 03:49:02;;;;;;;;;;;;;;;5.82;72.64;101143.59;4344394;33;34843;-53
2021/12/16 03:51:41;;;;;;;;;;;;;;;5.88;72.42;101143.47;4345583;33;33817;-53
2021/12/16 03:54:11;;;;;;;;;;;;;;;5.81;72.92;101145.34;4345319;33;34486;-53
2021/12/16 03:56:38;;;;;;;;;;;;;;;5.85;72.74;101138.28;4351976;32;35648;-53
2021/12/16 03:59:07;;;;;;;;;;;;;;;5.80;73.31;101134.91;4359976;32;34462;-54
2021/12/16 04:01:35;;;;;;;;;;;;;;;5.80;73.29;101148.00;4358986;32;34285;-53
2021/12/16 04:04:03;;;;;;;;;;;;;;;5.73;73.52;101149.88;4358510;32;34765;-54
2021/12/16 04:06:32;;;;;;;;;;;;;;;5.56;74.44;101151.97;4358994;32;34376;-53
2021/12/16 04:09:00;;;;;;;;;;;;;;;5.63;74.26;101145.72;4359788;32;35224;-54
2021/12/16 04:11:33;;;;;;;;;;;;;;;6.00;73.01;101143.25;4360408;32;34315;-53
2021/12/16 04:14:03;;;;;;;;;;;;;;;5.90;73.38;101141.69;4359039;32;34488;-53
2021/12/16 04:16:33;;;;;;;;;;;;;;;5.98;72.87;101144.19;4359686;32;34321;-53
2021/12/16 04:19:09;;;;;;;;;;;;;;;6.10;72.04;101134.28;4358705;32;34155;-53
2021/12/16 04:21:38;;;;;;;;;;;;;;;5.91;72.72;101133.78;4359982;32;34176;-53
2021/12/16 04:24:05;;;;;;;;;;;;;;;5.96;72.69;101140.72;4359558;32;35037;-53
2021/12/16 04:26:33;;;;;;;;;;;;;;;5.95;72.73;101141.56;4358802;32;34716;-53
2021/12/16 04:29:03;;;;;;;;;;;;;;;6.01;72.38;101134.50;4360041;32;34803;-54
2021/12/16 04:31:31;;;;;;;;;;;;;;;6.06;72.30;101140.47;4358863;32;33588;-53
2021/12/16 04:33:59;;;;;;;;;;;;;;;6.10;72.11;101141.28;4360138;32;33970;-53
2021/12/16 04:36:31;;;;;;;;;;;;;;;6.12;71.94;101142.97;4358959;32;35752;-54
2021/12/16 04:38:58;;;;;;;;;;;;;;;6.09;71.88;101143.03;4359815;32;34255;-53
2021/12/16 04:41:32;;;;;;;;;;;;;;;6.13;71.62;101149.09;4361499;32;33746;-53
2021/12/16 04:44:02;;;;;;;;;;;;;;;6.21;71.27;101141.91;4360708;32;34245;-53
2021/12/16 04:46:30;;;;;;;;;;;;;;;6.19;71.30;101146.34;4361625;32;34969;-54
2021/12/16 04:48:58;;;;;;;;;;;;;;;6.18;71.03;101149.84;4359871;32;35267;-53
2021/12/16 04:51:26;;;;;;;;;;;;;;;6.18;71.03;101141.97;4361843;32;33495;-54
2021/12/16 04:53:54;;;;;;;;;;;;;;;6.07;71.50;101136.97;4360582;32;33809;-53
2021/12/16 04:56:22;;;;;;;;;;;;;;;6.09;71.27;101137.81;4361423;32;35385;-53
2021/12/16 04:58:50;;;;;;;;;;;;;;;5.99;71.29;101141.53;4361020;32;34645;-53
2021/12/16 05:01:19;;;;;;;;;;;;;;;6.06;70.89;101135.22;4360203;32;33708;-54
2021/12/16 05:03:46;;;;;;;;;;;;;;;6.01;70.45;101129.25;4361429;32;34084;-53
2021/12/16 05:06:14;;;;;;;;;;;;;;;6.38;69.31;101133.69;4360301;32;34761;-53
2021/12/16 05:08:41;;;;;;;;;;;;;;;6.33;68.96;101130.28;4361344;32;34869;-54
2021/12/16 05:11:13;;;;;;;;;;;;;;;6.08;69.44;101125.56;4360878;32;34304;-53
2021/12/16 05:13:41;;;;;;;;;;;;;;;6.04;69.41;101134.41;4360115;32;35363;-53
2021/12/16 05:16:10;;;;;;;;;;;;;;;6.16;68.95;101127.19;4361243;32;35559;-55
2021/12/16 05:18:39;;;;;;;;;;;;;;;6.02;69.42;101130.09;4359753;32;34163;-53
2021/12/16 05:21:06;;;;;;;;;;;;;;;5.99;69.16;101136.28;4361531;32;34473;-53
2021/12/16 05:26:22;;;;;;;;;;;;;;;5.91;69.73;101139.03;4361137;32;35654;-53
2021/12/16 05:28:54;;;;;;;;;;;;;;;5.93;70.04;101136.34;4360634;32;35303;-54
2021/12/16 05:31:22;;;;;;;;;;;;;;;5.88;71.06;101140.84;4360413;32;33634;-53
2021/12/16 05:33:51;;;;;;;;;;;;;;;5.98;71.03;101145.03;4361587;32;34311;-53
2021/12/16 05:36:19;;;;;;;;;;;;;;;5.97;71.36;101142.44;4360226;32;35124;-53
2021/12/16 05:38:47;;;;;;;;;;;;;;;6.06;70.97;101137.84;4360930;32;34237;-53
2021/12/16 05:41:16;;;;;;;;;;;;;;;6.00;71.26;101145.84;4360630;32;34156;-54
2021/12/16 05:43:44;;;;;;;;;;;;;;;5.89;71.92;101148.69;4361243;32;33411;-53
2021/12/16 05:46:12;;;;;;;;;;;;;;;6.02;71.37;101151.94;4360980;32;34782;-53
2021/12/16 05:48:42;;;;;;;;;;;;;;;5.85;72.26;101159.25;4360200;32;34425;-54
2021/12/16 05:51:15;;;;;;;;;;;;;;;5.99;71.76;101159.88;4360218;32;34430;-54
2021/12/16 05:53:43;;;;;;;;;;;;;;;6.00;71.82;101165.97;4360213;32;33439;-53
2021/12/16 05:56:11;;;;;;;;;;;;;;;6.06;71.52;101157.97;4361170;32;34409;-54
2021/12/16 05:58:39;;;;;;;;;;;;;;;6.04;71.33;101157.16;4360506;32;35225;-54
2021/12/16 06:01:09;;;;;;;;;;;;;;;6.04;71.05;101158.00;4360269;32;34484;-53
2021/12/16 06:03:37;;;;;;;;;;;;;;;5.97;71.69;101153.81;4361278;32;34628;-53
2021/12/16 06:06:05;;;;;;;;;;;;;;;5.98;71.66;101159.91;4359703;32;34478;-53
2021/12/16 06:08:32;;;;;;;;;;;;;;;5.94;72.07;101160.84;4361014;32;35355;-54
2021/12/16 06:11:19;;;;;;;;;;;;;;;6.00;71.84;101156.34;4358997;32;33348;-53
2021/12/16 06:14:18;;;;;;;;;;;;;;;6.03;71.89;101147.53;4360952;32;34234;-53
2021/12/16 06:22:52;;;;;;;;;;;;;;;6.12;71.95;101163.09;4360165;32;34214;-54
2021/12/16 06:28:07;;;;;;;;;;;;;;;5.96;72.92;101154.69;4352617;32;34350;-54
2021/12/16 06:30:37;;;;;;;;;;;;;;;6.09;72.58;101164.03;4363072;32;34030;-53
2021/12/16 06:33:05;;;;;;;;;;;;;;;5.92;73.02;101158.25;4367866;32;33083;-53
2021/12/16 06:35:32;;;;;;;;;;;;;;;5.91;73.18;101159.13;4358903;32;34322;-53
2021/12/16 06:38:00;;;;;;;;;;;;;;;5.84;73.46;101166.25;4360049;32;34453;-53
2021/12/16 06:40:27;;;;;;;;;;;;;;;6.05;72.83;101165.00;4359586;32;34589;-54
2021/12/16 06:42:58;;;;;;;;;;;;;;;6.06;72.48;101169.31;4356409;32;33408;-54
2021/12/16 06:45:32;;;;;;;;;;;;;;;5.85;73.34;101170.59;4359319;32;34364;-54
2021/12/16 06:48:05;;;;;;;;;;;;;;;6.18;72.31;101168.19;4363067;32;33968;-54
2021/12/16 06:53:05;;;;;;;;;;;;;;;6.03;72.88;101172.03;4364951;32;33600;-54
2021/12/16 06:55:44;;;;;;;;;;;;;;;6.00;72.96;101174.69;4366728;32;33104;-53
2021/12/16 06:58:20;;;;;;;;;;;;;;;6.03;72.72;101177.28;4358397;32;34457;-53
2021/12/16 07:00:50;;;;;;;;;;;;;;;5.95;72.91;101187.03;4367198;32;34178;-54
2021/12/16 07:03:23;;;;;;;;;;;;;;;6.10;72.62;101181.47;4374395;32;33619;-54
2021/12/16 07:05:54;;;;;;;;;;;;;;;6.01;73.04;101184.31;4369451;32;34860;-54
2021/12/16 07:08:22;;;;;;;;;;;;;;;6.13;72.69;101188.44;4359272;32;34122;-54
2021/12/16 07:10:51;;;;;;;;;;;;;;;6.02;72.94;101191.25;4358415;32;33906;-54
2021/12/16 07:13:28;;;;;;;;;;;;;;;5.92;73.58;101187.09;4363015;32;33309;-53
2021/12/16 07:15:56;;;;;;;;;;;;;;;5.95;73.65;101188.75;4353715;32;33764;-54
2021/12/16 07:18:23;;;;;;;;;;;;;;;5.90;74.04;101188.88;4357908;32;35516;-53
2021/12/16 07:20:51;;;;;;;;;;;;;;;6.04;73.44;101186.00;4359179;32;34744;-53
2021/12/16 07:23:18;;;;;;;;;;;;;;;6.02;73.64;101185.16;4358692;32;33716;-54
2021/12/16 07:25:45;;;;;;;;;;;;;;;6.35;80.26;101186.22;4359104;32;34716;-54
2021/12/16 07:28:13;;;;;;;;;;;;;;;7.04;77.98;101194.25;4353916;32;35339;-54
2021/12/16 07:30:42;;;;;;;;;;;;;;;7.35;78.74;101193.47;4359585;32;33682;-54
2021/12/16 07:33:09;;;;;;;;;;;;;;;7.13;75.88;101190.53;4358951;32;34216;-54
2021/12/16 07:35:36;;;;;;;;;;;;;;;7.02;73.16;101191.66;4359389;32;34279;-54
2021/12/16 07:38:04;;;;;;;;;;;;;;;6.73;72.84;101181.88;4363143;32;34757;-53
2021/12/16 07:40:33;;;;;;;;;;;;;;;6.34;73.04;101189.75;4373589;32;35297;-53
2021/12/16 07:45:28;;;;;;;;;;;;;;;6.20;73.69;101178.66;4358107;32;33782;-54
2021/12/16 07:47:55;;;;;;;;;;;;;;;6.21;73.66;101177.78;4368912;32;34601;-53
2021/12/16 07:50:22;;;;;;;;;;;;;;;6.16;74.00;101184.88;4359707;32;34551;-53
2021/12/16 07:52:50;;;;;;;;;;;;;;;6.26;73.54;101189.03;4360301;32;33677;-54
2021/12/16 07:55:18;;;;;;;;;;;;;;;6.43;72.92;101183.41;4359319;32;34177;-53
2021/12/16 07:57:45;;;;;;;;;;;;;;;6.17;73.79;101187.47;4358044;32;34836;-54
2021/12/16 08:00:18;;;;;;;;;;;;;;;6.09;74.16;101185.00;4359141;32;33945;-53
2021/12/16 08:02:45;;;;;;;;;;;;;;;6.20;73.96;101186.53;4358354;32;33770;-53
2021/12/16 08:05:13;;;;;;;;;;;;;;;6.44;72.73;101188.63;4359746;32;34895;-54
2021/12/16 08:07:40;;;;;;;;;;;;;;;6.57;72.31;101191.88;4358404;32;34803;-55
2021/12/16 08:10:09;;;;;;;;;;;;;;;6.58;72.37;101183.06;4360832;32;35001;-53
2021/12/16 08:12:36;;;;;;;;;;;;;;;6.78;71.80;101190.47;4364713;32;33746;-54
2021/12/16 08:15:04;;;;;;;;;;;;;;;6.75;72.84;101194.97;4358311;32;34470;-53
2021/12/16 08:17:32;;;;;;;;;;;;;;;6.40;73.12;101192.22;4359720;32;35160;-53
2021/12/16 08:19:59;;;;;;;;;;;;;;;6.77;73.37;101187.91;4357962;32;34243;-54
2021/12/16 08:22:27;;;;;;;;;;;;;;;6.90;73.08;101198.09;4359091;32;33956;-54
2021/12/16 08:24:54;;;;;;;;;;;;;;;6.91;74.36;101188.44;4358238;32;35154;-53
2021/12/16 08:27:22;;;;;;;;;;;;;;;6.71;72.74;101194.16;4359334;32;34751;-54
2021/12/16 08:29:49;;;;;;;;;;;;;;;6.90;71.74;101199.81;4358588;32;35203;-54
2021/12/16 08:32:16;;;;;;;;;;;;;;;6.62;72.65;101195.22;4358512;32;34270;-54
2021/12/16 08:34:45;;;;;;;;;;;;;;;6.98;71.52;101191.75;4358537;32;34399;-53
2021/12/16 08:37:14;;;;;;;;;;;;;;;6.86;71.69;101188.56;4363858;32;35703;-53
2021/12/16 08:39:43;;;;;;;;;;;;;;;6.73;72.38;101191.47;4359369;32;35313;-53
2021/12/16 08:42:11;;;;;;;;;;;;;;;7.12;71.06;101192.31;4357261;32;34080;-53
2021/12/16 08:44:38;;;;;;;;;;;;;;;6.87;72.00;101194.66;4358646;32;34032;-54
2021/12/16 08:47:07;;;;;;;;;;;;;;;6.76;73.11;101188.78;4358348;32;36049;-54
2021/12/16 08:49:34;;;;;;;;;;;;;;;6.90;72.30;101187.59;4357427;32;34487;-54
2021/12/16 08:52:04;;;;;;;;;;;;;;;7.00;72.21;101190.84;4359114;32;33255;-53
2021/12/16 08:54:32;;;;;;;;;;;;;;;6.97;72.50;101192.69;4357609;32;35616;-54
2021/12/16 08:56:59;;;;;;;;;;;;;;;7.14;71.90;101190.50;4358337;32;35724;-54
2021/12/16 08:59:26;;;;;;;;;;;;;;;7.22;71.95;101191.16;4357908;32;34104;-54
2021/12/16 09:01:54;;;;;;;;;;;;;;;7.35;71.07;101196.09;4358356;32;34153;-54
2021/12/16 09:04:23;;;;;;;;;;;;;;;7.21;71.58;101199.97;4357066;32;33916;-53
2021/12/16 09:06:51;;;;;;;;;;;;;;;7.21;72.02;101199.06;4357385;32;34877;-54
2021/12/16 09:09:19;;;;;;;;;;;;;;;7.19;72.25;101187.75;4358793;32;35138;-53
2021/12/16 09:12:04;;;;;;;;;;;;;;;7.20;72.53;101192.13;4356905;32;34582;-54
2021/12/16 09:14:32;;;;;;;;;;;;;;;7.36;71.95;101184.69;4358970;32;34965;-56
2021/12/16 09:16:59;;;;;;;;;;;;;;;7.52;71.33;101182.53;4358219;32;35635;-56
2021/12/16 09:19:26;;;;;;;;;;;;;;;7.69;70.87;101191.66;4357315;32;34507;-55
2021/12/16 09:21:54;;;;;;;;;;;;;;;7.68;70.58;101182.06;4358681;32;33775;-56
2021/12/16 09:24:22;;;;;;;;;;;;;;;7.71;71.31;101188.16;4359473;32;34072;-55
2021/12/16 09:26:49;;;;;;;;;;;;;;;7.85;69.87;101188.63;4363075;32;34615;-55
2021/12/16 09:29:19;;;;;;;;;;;;;;;7.68;70.11;101187.34;4358513;32;33892;-55
2021/12/16 09:31:46;;;;;;;;;;;;;;;7.59;70.61;101190.19;4360470;32;34595;-56
2021/12/16 09:34:14;;;;;;;;;;;;;;;7.46;72.46;101186.16;4359126;32;33596;-56
2021/12/16 09:36:42;;;;;;;;;;;;;;;7.55;71.01;101188.56;4363172;32;35736;-55
2021/12/16 09:39:12;;;;;;;;;;;;;;;7.60;70.73;101188.44;4368433;32;33966;-55
2021/12/16 09:41:45;;;;;;;;;;;;;;;7.41;71.31;101182.81;4359352;32;33419;-55
2021/12/16 09:44:13;;;;;;;;;;;;;;;7.44;71.56;101175.72;4360904;32;35353;-56
2021/12/16 09:46:43;;;;;;;;;;;;;;;7.57;70.87;101181.50;4358389;32;34254;-55
2021/12/16 09:49:11;;;;;;;;;;;;;;;7.69;70.44;101181.16;4360226;32;34556;-56
2021/12/16 09:51:41;;;;;;;;;;;;;;;7.60;70.77;101176.16;4357198;32;33712;-56
2021/12/16 09:54:09;;;;;;;;;;;;;;;7.83;69.57;101172.03;4359518;32;35007;-56
2021/12/16 09:56:37;;;;;;;;;;;;;;;7.75;70.41;101177.50;4359732;32;34783;-55
2021/12/16 09:59:05;;;;;;;;;;;;;;;8.03;69.43;101171.47;4357977;32;33989;-55
2021/12/16 10:01:33;;;;;;;;;;;;;;;7.87;69.46;101171.91;4361984;32;34488;-56
2021/12/16 10:04:03;;;;;;;;;;;;;;;7.72;70.34;101168.84;4359102;32;35106;-55
2021/12/16 10:06:31;;;;;;;;;;;;;;;7.89;70.02;101162.22;4359629;32;34771;-55
2021/12/16 10:09:04;;;;;;;;;;;;;;;7.85;70.06;101163.22;4359853;32;35295;-55
2021/12/16 10:11:33;;;;;;;;;;;;;;;7.88;69.88;101155.22;4359419;32;33418;-55
2021/12/16 10:14:15;;;;;;;;;;;;;;;7.78;70.32;101153.75;4360313;32;34209;-56
2021/12/16 10:19:31;;;;;;;;;;;;;;;8.31;68.72;101146.97;4360192;32;34585;-56
2021/12/16 10:22:19;;;;;;;;;;;;;;;8.22;68.90;101142.81;4359183;32;32815;-55
2021/12/16 10:24:47;;;;;;;;;;;;;;;8.32;68.91;101132.88;4359469;32;34280;-56
2021/12/16 10:27:16;;;;;;;;;;;;;;;8.63;71.59;101132.84;4359919;32;33800;-56
2021/12/16 10:29:43;;;;;;;;;;;;;;;8.87;67.32;101132.00;4358624;32;34595;-55
2021/12/16 10:32:32;;;;;;;;;;;;;;;8.69;66.90;101131.78;4360511;32;33520;-56
2021/12/16 10:35:00;;;;;;;;;;;;;;;8.64;67.20;101130.12;4360124;32;34471;-55
2021/12/16 10:37:33;;;;;;;;;;;;;;;8.57;67.09;101141.78;4367261;32;34511;-56
2021/12/16 10:40:19;;;;;;;;;;;;;;;8.57;67.01;101136.53;4359327;32;34382;-55
2021/12/16 10:42:46;;;;;;;;;;;;;;;8.60;67.19;101140.81;4359084;32;33668;-56
2021/12/16 10:45:26;;;;;;;;;;;;;;;8.71;66.41;101138.72;4359859;32;34904;-56
2021/12/16 10:48:25;;;;;;;;;;;;;;;8.71;66.54;101133.44;4359796;32;33988;-56
2021/12/16 10:51:02;;;;;;;;;;;;;;;8.82;65.58;101125.16;4336096;32;34246;-55
2021/12/16 10:53:44;;;;;;;;;;;;;;;8.48;66.84;101121.87;4359998;32;33424;-56
2021/12/16 10:56:11;;;;;;;;;;;;;;;8.56;66.64;101113.72;4359309;32;34290;-56
2021/12/16 10:58:46;;;;;;;;;;;;;;;8.22;67.85;101130.56;4359460;32;34848;-56
2021/12/16 11:01:32;;;;;;;;;;;;;;;8.70;66.36;101129.06;4360352;32;34752;-56
2021/12/16 11:03:59;;;;;;;;;;;;;;;8.76;66.26;101128.91;4361088;32;33240;-55
2021/12/16 11:06:32;;;;;;;;;;;;;;;8.62;66.77;101124.06;4373426;32;34290;-55
2021/12/16 11:09:17;;;;;;;;;;;;;;;8.66;66.41;101128.31;4358041;32;35366;-56
2021/12/16 11:11:45;;;;;;;;;;;;;;;8.97;68.01;101134.34;4358680;32;33859;-55
2021/12/16 11:14:12;;;;;;;;;;;;;;;8.75;66.37;101124.53;4360341;32;34123;-55
2021/12/16 11:16:43;;;;;;;;;;;;;;;8.81;66.25;101124.31;4359015;32;33963;-56
2021/12/16 11:19:31;;;;;;;;;;;;;;;8.67;66.89;101119.50;4360353;32;34594;-56
2021/12/16 11:22:04;;;;;;;;;;;;;;;8.65;66.96;101126.59;4356515;32;35705;-56
2021/12/16 11:24:31;;;;;;;;;;;;;;;9.13;70.61;101113.59;4358970;32;33816;-56
2021/12/16 11:26:59;;;;;;;;;;;;;;;9.36;68.03;101116.28;4359776;32;33987;-56
2021/12/16 11:29:29;;;;;;;;;;;;;;;8.95;65.85;101117.72;4357930;32;34101;-55
2021/12/16 11:31:57;;;;;;;;;;;;;;;8.82;66.67;101117.28;4359844;32;34510;-56
2021/12/16 11:34:24;;;;;;;;;;;;;;;9.30;65.07;101110.38;4358675;32;33941;-56
2021/12/16 11:36:53;;;;;;;;;;;;;;;9.11;65.62;101105.78;4364089;32;34245;-56
2021/12/16 11:39:27;;;;;;;;;;;;;;;9.12;65.54;101102.22;4366969;32;34319;-55
2021/12/16 11:42:04;;;;;;;;;;;;;;;9.01;66.22;101109.62;4358661;32;34278;-55
2021/12/16 11:44:33;;;;;;;;;;;;;;;9.14;65.84;101108.28;4361012;32;35006;-56
2021/12/16 11:47:06;;;;;;;;;;;;;;;8.74;66.59;101104.34;4358474;32;33479;-55
2021/12/16 11:49:39;;;;;;;;;;;;;;;9.06;65.58;101097.16;4358299;32;35453;-56
2021/12/16 11:52:26;;;;;;;;;;;;;;;9.22;66.11;101102.75;4358863;32;34373;-56
2021/12/16 11:54:58;;;;;;;;;;;;;;;8.98;66.55;101102.69;4358008;32;33774;-56
2021/12/16 11:57:31;;;;;;;;;;;;;;;9.21;65.55;101094.00;4365956;32;33687;-56
2021/12/16 12:00:04;;;;;;;;;;;;;;;9.02;66.06;101093.75;4361101;32;33916;-56
2021/12/16 12:02:46;;;;;;;;;;;;;;;9.37;64.96;101093.44;4353170;32;35167;-56
2021/12/16 12:05:19;;;;;;;;;;;;;;;9.20;65.23;101092.25;4344187;33;33119;-56
2021/12/16 12:07:56;;;;;;;;;;;;;;;9.34;65.04;101089.12;4354602;32;33981;-56
2021/12/16 12:10:41;;;;;;;;;;;;;;;9.26;65.34;101089.41;4358666;32;34248;-56
2021/12/16 12:13:10;;;;;;;;;;;;;;;9.26;65.32;101092.03;4358506;32;34590;-55
2021/12/16 12:15:58;;;;;;;;;;;;;;;9.36;64.94;101094.34;4358956;32;33144;-55
2021/12/16 12:18:36;;;;;;;;;;;;;;;9.38;64.77;101097.78;4358694;32;34941;-55
2021/12/16 12:21:19;;;;;;;;;;;;;;;9.16;65.75;101097.69;4356723;32;35829;-56
2021/12/16 12:23:46;;;;;;;;;;;;;;;9.30;64.97;101089.31;4351332;32;35025;-56
2021/12/16 12:26:16;;;;;;;;;;;;;;;9.32;65.03;101092.75;4353806;32;34260;-56
2021/12/16 12:28:44;;;;;;;;;;;;;;;8.99;66.11;101085.09;4356056;32;34350;-56
2021/12/16 12:31:12;;;;;;;;;;;;;;;9.16;65.60;101084.53;4358261;32;33619;-55
2021/12/16 12:33:39;;;;;;;;;;;;;;;9.01;65.82;101084.13;4358608;32;34659;-56
2021/12/16 12:36:08;;;;;;;;;;;;;;;9.17;65.51;101084.47;4359265;32;33791;-56
2021/12/16 12:38:36;;;;;;;;;;;;;;;9.12;65.97;101083.75;4358626;32;34326;-56
2021/12/16 12:41:04;;;;;;;;;;;;;;;9.46;64.67;101087.84;4350601;32;34245;-55
2021/12/16 12:43:33;;;;;;;;;;;;;;;9.38;64.96;101079.34;4358532;32;34579;-56
2021/12/16 12:46:01;;;;;;;;;;;;;;;9.42;64.80;101084.47;4358441;32;33400;-55
2021/12/16 12:48:29;;;;;;;;;;;;;;;9.19;65.46;101076.50;4355633;32;34240;-56
2021/12/16 12:50:58;;;;;;;;;;;;;;;9.45;64.81;101080.84;4356438;32;33521;-56
2021/12/16 12:53:50;;;;;;;;;;;;;;;9.18;65.32;101078.28;4363563;32;34896;-56
2021/12/16 12:56:21;;;;;;;;;;;;;;;8.91;66.35;101069.56;4364010;32;33425;-56
2021/12/16 12:58:50;;;;;;;;;;;;;;;9.17;65.65;101073.06;4367053;32;35021;-56
2021/12/16 13:01:17;;;;;;;;;;;;;;;8.90;65.98;101072.22;4365493;32;34220;-55
2021/12/16 13:03:45;;;;;;;;;;;;;;;9.03;65.73;101069.16;4363545;32;34584;-55
2021/12/16 13:06:15;;;;;;;;;;;;;;;9.05;65.59;101069.06;4366014;32;33393;-56
2021/12/16 13:08:47;;;;;;;;;;;;;;;9.10;65.85;101077.69;4359353;32;33802;-56
2021/12/16 13:11:27;;;;;;;;;;;;;;;9.10;65.82;101075.06;4361008;32;35548;-56
2021/12/16 13:13:58;;;;;;;;;;;;;;;9.10;65.89;101084.75;4351794;32;34015;-56
2021/12/16 13:16:53;;;;;;;;;;;;;;;9.13;65.57;101081.97;4317316;32;1089123;-56
2021/12/16 13:27:37;;;;;;;;;;;;;;;9.14;65.53;101089.84;4360341;32;33311;-56
2021/12/16 13:30:18;;;;;;;;;;;;;;;8.73;66.53;101086.84;4359101;32;34016;-56
2021/12/16 13:33:23;;;;;;;;;;;;;;;9.06;65.78;101091.88;4360964;32;34006;-56
2021/12/16 13:36:00;;;;;;;;;;;;;;;8.80;66.70;101088.37;4359855;32;34535;-56
2021/12/16 13:38:35;;;;;;;;;;;;;;;8.76;66.40;101102.56;4372575;32;33385;-56
2021/12/16 13:41:07;;;;;;;;;;;;;;;8.65;66.94;101097.63;4360917;32;34910;-56
2021/12/16 13:43:34;;;;;;;;;;;;;;;8.72;67.10;101098.28;4358900;32;34343;-56
2021/12/16 13:49:02;;;;;;;;;;;;;;;8.61;67.44;101108.31;4357977;32;34149;-56
2021/12/16 14:03:10;;;;;;;;;;;;;;;8.92;66.01;101112.56;4345177;33;33725;-56
2021/12/16 14:06:14;;;;;;;;;;;;;;;8.89;66.39;101110.03;4352454;32;35946;-56
2021/12/16 14:08:35;;;;;;;;;;;;;;;8.92;66.15;101110.81;4354641;32;35115;-56
2021/12/16 14:11:27;;;;;;;;;;;;;;;8.77;66.43;101116.59;4358780;32;34382;-56
2021/12/16 14:25:26;;;;;;;;;;;;;;;9.18;65.26;101109.91;4360153;32;34227;-56
2021/12/16 14:39:27;;;;;;;;;;;;;;;8.84;66.38;101110.19;4344217;33;34407;-56
2021/12/16 14:50:25;;;;;;;;;;;;;;;8.79;66.86;101118.25;4357449;32;35041;-56
2021/12/16 14:52:52;;;;;;;;;;;;;;;8.72;67.21;101127.25;4358670;32;34160;-56
2021/12/16 14:55:20;;;;;;;;;;;;;;;8.63;67.34;101124.94;4360034;32;33652;-56
2021/12/16 14:57:52;;;;;;;;;;;;;;;8.77;67.14;101125.34;4349269;32;35162;-56
2021/12/16 15:00:23;;;;;;;;;;;;;;;8.63;67.55;101120.53;4351782;32;34635;-56
2021/12/16 15:02:57;;;;;;;;;;;;;;;8.66;67.50;101122.19;4358973;32;34268;-56
2021/12/16 15:05:28;;;;;;;;;;;;;;;8.80;67.24;101125.25;4357915;32;33247;-56
2021/12/16 15:08:06;;;;;;;;;;;;;;;8.72;67.33;101129.03;4358517;32;35087;-56
2021/12/16 15:10:33;;;;;;;;;;;;;;;8.71;67.42;101120.28;4361822;32;35317;-56
2021/12/16 15:13:09;;;;;;;;;;;;;;;8.53;68.10;101126.13;4359429;32;34330;-56
2021/12/16 15:15:52;;;;;;;;;;;;;;;8.55;68.16;101121.66;4360171;32;33619;-55
2021/12/16 15:35:48;;;;;;;;;;;;;;;8.88;66.99;101117.09;4359721;32;35095;-56
2021/12/16 15:40:35;;;;;;;;;;;;;;;8.60;67.76;101125.88;4340187;32;34894;-55
2021/12/16 15:43:04;;;;;;;;;;;;;;;8.70;67.51;101121.16;4359639;32;34724;-56
2021/12/16 15:45:42;;;;;;;;;;;;;;;8.91;66.86;101113.47;4359267;32;34152;-56
2021/12/16 15:48:36;;;;;;;;;;;;;;;8.92;66.86;101123.09;4349755;32;33961;-56
2021/12/16 15:51:09;;;;;;;;;;;;;;;8.93;66.56;101119.56;4345882;32;34969;-56
2021/12/16 15:53:44;;;;;;;;;;;;;;;9.01;68.36;101126.28;4359085;32;33804;-56
2021/12/16 15:56:13;;;;;;;;;;;;;;;9.12;66.02;101125.06;4358679;32;34522;-56
2021/12/16 15:58:51;;;;;;;;;;;;;;;8.82;66.89;101133.97;4358866;32;33197;-57
2021/12/16 16:01:23;;;;;;;;;;;;;;;9.12;66.24;101125.94;4358781;32;34662;-56
2021/12/16 16:03:51;;;;;;;;;;;;;;;8.87;66.62;101123.25;4360053;32;33603;-56
2021/12/16 16:06:19;;;;;;;;;;;;;;;8.97;66.09;101132.56;4358523;32;35283;-56
2021/12/16 16:08:48;;;;;;;;;;;;;;;8.94;66.25;101137.09;4359450;32;33327;-56
2021/12/16 16:11:17;;;;;;;;;;;;;;;8.88;66.46;101135.53;4358785;32;34142;-56
2021/12/16 16:13:49;;;;;;;;;;;;;;;8.94;66.32;101135.31;4358344;32;34520;-56
2021/12/16 16:16:18;;;;;;;;;;;;;;;8.93;66.34;101146.75;4359186;32;34620;-56
2021/12/16 16:18:55;;;;;;;;;;;;;;;8.79;67.00;101146.38;4358072;32;33108;-56
2021/12/16 16:21:30;;;;;;;;;;;;;;;8.63;67.08;101141.59;4359174;32;34193;-56
2021/12/16 16:24:06;;;;;;;;;;;;;;;8.72;66.98;101135.16;4358481;32;35277;-56
2021/12/16 16:26:35;;;;;;;;;;;;;;;8.60;67.29;101149.56;4345057;32;34321;-56
2021/12/16 16:29:07;;;;;;;;;;;;;;;8.34;68.25;101144.25;4357223;32;33674;-56
2021/12/16 16:31:34;;;;;;;;;;;;;;;8.61;67.26;101135.50;4359974;32;33424;-56
2021/12/16 16:34:07;;;;;;;;;;;;;;;8.51;67.66;101135.84;4358805;32;34250;-56
2021/12/16 16:36:38;;;;;;;;;;;;;;;8.69;67.11;101140.53;4362420;32;34076;-56
2021/12/16 16:39:07;;;;;;;;;;;;;;;8.46;67.96;101130.72;4368237;32;33718;-56
2021/12/16 16:41:42;;;;;;;;;;;;;;;8.73;66.91;101141.31;4360230;32;34073;-55
2021/12/16 16:44:12;;;;;;;;;;;;;;;8.75;66.71;101136.84;4345803;32;34489;-56
2021/12/16 16:46:45;;;;;;;;;;;;;;;9.03;70.53;101142.03;4353696;32;35304;-56
2021/12/16 16:49:28;;;;;;;;;;;;;;;8.60;67.78;101140.81;4358439;32;33735;-56
2021/12/16 16:51:58;;;;;;;;;;;;;;;8.71;67.24;101143.13;4361084;32;34125;-56
2021/12/16 16:54:28;;;;;;;;;;;;;;;8.55;67.85;101137.47;4361118;32;34815;-55